createdAt,value
2017-10-31T00:01:52.905Z,66.80
2017-10-31T00:04:20.399Z,66.90
2017-10-31T00:06:48.671Z,66.90
2017-10-31T00:09:16.239Z,66.90
2017-10-31T00:11:43.725Z,66.90
2017-10-31T00:14:11.230Z,67.50
2017-10-31T00:16:38.817Z,67.10
2017-10-31T00:19:06.297Z,67.10
2017-10-31T00:21:33.821Z,67.00
2017-10-31T00:24:02.123Z,67.20
2017-10-31T00:26:30.382Z,67.70
2017-10-31T00:28:58.973Z,67.70
2017-10-31T00:31:27.344Z,67.40
2017-10-31T00:33:54.817Z,67.40
2017-10-31T00:36:22.401Z,67.60
2017-10-31T00:38:49.887Z,67.80
2017-10-31T00:41:17.385Z,67.70
2017-10-31T00:43:44.979Z,67.80
2017-10-31T00:46:12.465Z,67.70
2017-10-31T00:48:39.965Z,67.80
2017-10-31T00:51:07.580Z,68.00
2017-10-31T00:53:35.839Z,68.30
2017-10-31T00:56:03.354Z,68.20
2017-10-31T00:58:31.694Z,68.20
2017-10-31T01:00:59.953Z,68.20
2017-10-31T01:03:28.308Z,67.90
2017-10-31T01:05:56.668Z,67.90
2017-10-31T01:08:24.413Z,67.90
2017-10-31T01:10:51.927Z,68.20
2017-10-31T01:13:19.846Z,68.10
2017-10-31T01:15:48.134Z,68.40
2017-10-31T01:18:16.480Z,68.50
2017-10-31T01:20:44.075Z,68.50
2017-10-31T01:23:11.555Z,68.80
2017-10-31T01:25:39.029Z,68.60
2017-10-31T01:28:06.632Z,68.50
2017-10-31T01:30:34.886Z,68.40
2017-10-31T01:33:04.340Z,68.50
2017-10-31T01:35:32.664Z,68.50
2017-10-31T01:38:00.227Z,68.60
2017-10-31T01:40:27.743Z,68.60
2017-10-31T01:42:55.342Z,68.50
2017-10-31T01:45:22.823Z,68.90
2017-10-31T01:47:51.045Z,68.90
2017-10-31T01:50:19.407Z,69.10
2017-10-31T01:52:47.629Z,68.90
2017-10-31T01:55:15.943Z,70.30
2017-10-31T01:57:43.481Z,69.70
2017-10-31T02:00:10.987Z,69.10
2017-10-31T02:02:38.550Z,68.80
2017-10-31T02:05:06.397Z,69.10
2017-10-31T02:07:33.884Z,69.00
2017-10-31T02:10:02.163Z,68.80
2017-10-31T02:12:30.315Z,68.70
2017-10-31T02:14:58.563Z,68.90
2017-10-31T02:17:26.091Z,68.90
2017-10-31T02:19:54.435Z,68.50
2017-10-31T02:22:21.926Z,68.40
2017-10-31T02:24:49.416Z,69.00
2017-10-31T02:27:17.952Z,68.30
2017-10-31T02:29:46.225Z,68.40
2017-10-31T02:32:13.774Z,68.80
2017-10-31T02:34:41.388Z,68.40
2017-10-31T02:37:09.669Z,68.70
2017-10-31T02:39:37.148Z,68.70
2017-10-31T02:42:04.706Z,68.60
2017-10-31T02:44:32.227Z,68.30
2017-10-31T02:46:59.679Z,68.30
2017-10-31T02:49:28.049Z,68.90
2017-10-31T02:51:56.442Z,68.90
2017-10-31T02:54:23.939Z,68.90
2017-10-31T02:56:51.510Z,68.90
2017-10-31T02:59:19.799Z,69.20
2017-10-31T03:01:47.273Z,69.20
2017-10-31T03:04:15.602Z,69.50
2017-10-31T03:06:43.898Z,69.00
2017-10-31T03:09:12.160Z,69.00
2017-10-31T03:11:39.734Z,68.80
2017-10-31T03:14:07.292Z,68.80
2017-10-31T03:16:35.553Z,68.70
2017-10-31T03:19:03.315Z,68.60
2017-10-31T03:21:30.846Z,68.80
2017-10-31T03:24:00.006Z,69.10
2017-10-31T03:26:28.354Z,69.30
2017-10-31T03:28:55.811Z,69.20
2017-10-31T03:31:24.069Z,69.50
2017-10-31T03:33:52.647Z,69.50
2017-10-31T03:36:20.423Z,69.10
2017-10-31T03:38:47.891Z,69.10
2017-10-31T03:41:16.228Z,68.90
2017-10-31T03:43:43.699Z,68.90
2017-10-31T03:46:11.206Z,69.10
2017-10-31T03:48:38.765Z,69.30
2017-10-31T03:51:06.351Z,69.40
2017-10-31T03:53:33.912Z,69.50
2017-10-31T03:56:01.418Z,69.60
2017-10-31T03:58:28.904Z,69.70
2017-10-31T04:00:56.471Z,69.80
2017-10-31T04:03:23.984Z,69.50
2017-10-31T04:05:52.255Z,69.30
2017-10-31T04:08:19.874Z,69.60
2017-10-31T04:10:47.357Z,69.60
2017-10-31T04:13:15.026Z,69.60
2017-10-31T04:15:42.601Z,69.70
2017-10-31T04:18:10.076Z,69.70
2017-10-31T04:20:37.567Z,69.70
2017-10-31T04:23:05.157Z,69.70
2017-10-31T04:25:32.613Z,70.10
2017-10-31T04:28:00.932Z,70.30
2017-10-31T04:30:28.505Z,70.30
2017-10-31T04:32:56.746Z,70.30
2017-10-31T04:35:24.323Z,70.30
2017-10-31T04:37:51.916Z,70.00
2017-10-31T04:40:19.366Z,70.10
2017-10-31T04:42:46.880Z,70.80
2017-10-31T04:45:14.560Z,70.10
2017-10-31T04:47:42.035Z,70.30
2017-10-31T04:50:09.545Z,70.40
2017-10-31T04:52:37.903Z,70.50
2017-10-31T04:55:05.406Z,70.30
2017-10-31T04:57:32.871Z,70.10
2017-10-31T05:00:01.927Z,70.20
2017-10-31T05:02:30.159Z,70.20
2017-10-31T05:04:58.529Z,70.40
2017-10-31T05:07:26.766Z,70.00
2017-10-31T05:09:54.241Z,70.00
2017-10-31T05:12:21.806Z,70.10
2017-10-31T05:14:49.296Z,70.10
2017-10-31T05:17:16.910Z,70.40
2017-10-31T05:19:44.803Z,70.20
2017-10-31T05:22:12.287Z,70.20
2017-10-31T05:24:39.887Z,70.30
2017-10-31T05:27:08.167Z,70.80
2017-10-31T05:29:35.730Z,70.80
2017-10-31T05:32:03.412Z,71.00
2017-10-31T05:34:30.895Z,71.10
2017-10-31T05:36:58.509Z,71.20
2017-10-31T05:39:33.761Z,71.30
2017-10-31T05:42:02.124Z,71.50
2017-10-31T05:44:29.602Z,71.50
2017-10-31T05:46:57.093Z,71.70
2017-10-31T05:49:24.679Z,71.70
2017-10-31T05:51:52.169Z,71.30
2017-10-31T05:54:19.694Z,71.70
2017-10-31T05:56:47.355Z,71.70
2017-10-31T05:59:14.887Z,71.90
2017-10-31T06:01:42.375Z,71.80
2017-10-31T06:04:10.109Z,71.80
2017-10-31T06:06:38.334Z,71.70
2017-10-31T06:09:05.941Z,71.70
2017-10-31T06:11:33.468Z,71.50
2017-10-31T06:14:01.708Z,71.70
2017-10-31T06:16:29.555Z,71.70
2017-10-31T06:18:57.902Z,72.00
2017-10-31T06:21:25.395Z,72.00
2017-10-31T06:23:58.763Z,71.60
2017-10-31T06:26:32.804Z,71.60
2017-10-31T06:29:06.806Z,71.50
2017-10-31T06:31:40.068Z,71.30
2017-10-31T06:34:08.317Z,71.00
2017-10-31T06:36:35.793Z,71.10
2017-10-31T06:39:03.418Z,70.80
2017-10-31T06:41:31.662Z,70.70
2017-10-31T06:43:59.148Z,70.90
2017-10-31T06:46:26.719Z,70.60
2017-10-31T06:48:54.959Z,70.40
2017-10-31T06:51:22.468Z,70.40
2017-10-31T06:53:50.397Z,70.30
2017-10-31T06:56:17.862Z,70.10
2017-10-31T06:58:46.105Z,68.10
2017-10-31T07:01:13.806Z,68.10
2017-10-31T07:03:41.269Z,66.70
2017-10-31T07:06:08.750Z,64.80
2017-10-31T07:08:36.677Z,62.80
2017-10-31T07:11:04.166Z,61.30
2017-10-31T07:13:31.621Z,60.20
2017-10-31T07:15:59.160Z,59.20
2017-10-31T07:18:27.411Z,56.20
2017-10-31T07:20:56.127Z,54.80
2017-10-31T07:23:23.612Z,55.40
2017-10-31T07:25:51.095Z,52.30
2017-10-31T07:28:18.658Z,51.70
2017-10-31T07:30:46.111Z,52.60
2017-10-31T07:33:13.594Z,52.70
2017-10-31T07:35:42.261Z,53.20
2017-10-31T07:38:09.731Z,53.20
2017-10-31T07:40:37.250Z,52.80
2017-10-31T07:43:05.599Z,54.10
2017-10-31T07:45:33.847Z,54.70
2017-10-31T07:48:02.091Z,54.30
2017-10-31T07:50:29.630Z,54.30
2017-10-31T07:52:57.130Z,53.30
2017-10-31T07:55:24.644Z,53.50
2017-10-31T07:57:52.984Z,53.60
2017-10-31T08:00:20.472Z,53.60
2017-10-31T08:02:47.995Z,53.50
2017-10-31T08:05:16.343Z,51.70
2017-10-31T08:07:43.947Z,51.80
2017-10-31T08:10:11.433Z,50.80
2017-10-31T08:12:39.000Z,49.70
2017-10-31T08:15:07.410Z,48.40
2017-10-31T08:17:34.904Z,48.50
2017-10-31T08:20:02.519Z,48.50
2017-10-31T08:22:30.103Z,48.90
2017-10-31T08:24:58.335Z,49.30
2017-10-31T08:27:25.795Z,49.20
2017-10-31T08:29:54.401Z,49.80
2017-10-31T08:32:21.894Z,49.60
2017-10-31T08:34:49.415Z,50.40
2017-10-31T08:37:16.984Z,49.90
2017-10-31T08:39:44.464Z,50.30
2017-10-31T08:42:11.968Z,50.60
2017-10-31T08:44:39.896Z,51.50
2017-10-31T08:47:07.363Z,51.40
2017-10-31T08:49:35.587Z,51.70
2017-10-31T08:52:03.356Z,51.60
2017-10-31T08:54:30.814Z,51.00
2017-10-31T08:56:58.301Z,50.60
2017-10-31T08:59:26.981Z,50.10
2017-10-31T09:01:54.447Z,50.10
2017-10-31T09:04:21.927Z,50.10
2017-10-31T09:06:49.837Z,49.40
2017-10-31T09:09:18.067Z,48.80
2017-10-31T09:11:45.540Z,48.80
2017-10-31T09:14:13.233Z,49.30
2017-10-31T09:16:42.273Z,48.50
2017-10-31T09:19:10.500Z,48.80
2017-10-31T09:21:38.163Z,48.80
2017-10-31T09:24:06.422Z,48.70
2017-10-31T09:26:33.909Z,48.90
2017-10-31T09:29:01.497Z,48.60
2017-10-31T09:31:29.030Z,49.00
2017-10-31T09:33:56.509Z,48.60
2017-10-31T09:36:24.102Z,48.60
2017-10-31T09:38:51.652Z,48.90
2017-10-31T09:41:19.244Z,48.90
2017-10-31T09:43:47.666Z,47.90
2017-10-31T09:46:15.916Z,47.50
2017-10-31T09:48:43.597Z,47.50
2017-10-31T09:51:11.124Z,47.90
2017-10-31T09:53:39.501Z,47.40
2017-10-31T09:56:06.976Z,47.40
2017-10-31T09:58:44.247Z,47.70
2017-10-31T10:01:11.721Z,47.10
2017-10-31T10:03:39.231Z,47.20
2017-10-31T10:06:06.892Z,47.40
2017-10-31T10:08:35.267Z,47.30
2017-10-31T10:11:02.889Z,47.20
2017-10-31T10:13:31.133Z,46.10
2017-10-31T10:15:58.677Z,46.10
2017-10-31T10:18:26.938Z,45.50
2017-10-31T10:20:54.408Z,45.60
2017-10-31T10:23:22.065Z,45.20
2017-10-31T10:25:49.604Z,45.10
2017-10-31T10:28:17.075Z,45.10
2017-10-31T10:30:44.664Z,44.70
2017-10-31T10:33:12.140Z,43.60
2017-10-31T10:35:39.602Z,42.40
2017-10-31T10:38:07.175Z,41.70
2017-10-31T10:40:34.633Z,40.40
2017-10-31T10:43:02.847Z,40.00
2017-10-31T10:45:30.405Z,40.10
2017-10-31T10:47:57.965Z,40.40
2017-10-31T10:50:25.455Z,41.60
2017-10-31T10:52:53.026Z,42.10
2017-10-31T10:55:20.715Z,42.40
2017-10-31T10:57:48.200Z,42.00
2017-10-31T11:00:15.772Z,41.90
2017-10-31T11:02:43.235Z,41.50
2017-10-31T11:05:10.893Z,40.90
2017-10-31T11:07:39.153Z,40.50
2017-10-31T11:10:06.620Z,40.50
2017-10-31T11:12:35.017Z,42.20
2017-10-31T11:15:02.483Z,42.20
2017-10-31T11:17:30.730Z,44.30
2017-10-31T11:19:58.323Z,44.20
2017-10-31T11:22:25.813Z,44.80
2017-10-31T11:24:53.301Z,46.10
2017-10-31T11:27:21.150Z,46.70
2017-10-31T11:29:48.613Z,46.50
2017-10-31T11:32:16.854Z,47.00
2017-10-31T11:34:44.432Z,47.00
2017-10-31T11:37:11.955Z,47.80
2017-10-31T11:39:39.478Z,47.60
2017-10-31T11:42:07.858Z,48.10
2017-10-31T11:44:35.356Z,48.10
2017-10-31T11:47:02.840Z,46.10
2017-10-31T11:49:30.407Z,45.70
2017-10-31T11:51:57.946Z,46.00
2017-10-31T11:54:25.405Z,45.30
2017-10-31T11:56:53.720Z,44.90
2017-10-31T11:59:21.211Z,45.00
2017-10-31T12:01:48.775Z,45.10
2017-10-31T12:04:17.018Z,44.90
2017-10-31T12:06:44.579Z,44.80
2017-10-31T12:09:12.064Z,43.60
2017-10-31T12:11:39.654Z,43.50
2017-10-31T12:14:07.312Z,44.80
2017-10-31T12:16:34.788Z,46.30
2017-10-31T12:19:02.264Z,47.90
2017-10-31T12:21:30.148Z,47.30
2017-10-31T12:23:57.802Z,47.90
2017-10-31T12:26:26.211Z,47.10
2017-10-31T12:28:54.548Z,47.00
2017-10-31T12:31:22.011Z,47.00
2017-10-31T12:33:49.485Z,46.50
2017-10-31T12:36:17.809Z,47.10
2017-10-31T12:38:46.025Z,48.30
2017-10-31T12:41:13.487Z,48.20
2017-10-31T12:43:41.976Z,49.50
2017-10-31T12:46:09.722Z,49.40
2017-10-31T12:48:37.280Z,49.20
2017-10-31T12:51:05.610Z,49.90
2017-10-31T12:53:33.070Z,50.00
2017-10-31T12:56:00.566Z,50.10
2017-10-31T12:58:28.147Z,50.30
2017-10-31T13:00:55.707Z,50.70
2017-10-31T13:03:23.193Z,50.50
2017-10-31T13:05:51.502Z,51.50
2017-10-31T13:08:19.806Z,51.10
2017-10-31T13:10:47.293Z,51.10
2017-10-31T13:13:16.618Z,50.70
2017-10-31T13:15:44.168Z,50.70
2017-10-31T13:18:11.794Z,50.30
2017-10-31T13:20:40.047Z,49.70
2017-10-31T13:23:07.592Z,49.60
2017-10-31T13:25:35.201Z,49.10
2017-10-31T13:28:03.740Z,48.80
2017-10-31T13:30:31.569Z,48.80
2017-10-31T13:32:59.591Z,48.80
2017-10-31T13:35:28.206Z,48.40
2017-10-31T13:37:56.048Z,48.50
2017-10-31T13:40:24.004Z,48.30
2017-10-31T13:42:52.193Z,48.50
2017-10-31T13:45:19.740Z,48.90
2017-10-31T13:47:48.399Z,48.80
2017-10-31T13:50:16.256Z,48.50
2017-10-31T13:52:43.754Z,48.50
2017-10-31T13:55:11.227Z,48.20
2017-10-31T13:57:39.601Z,47.20
2017-10-31T14:00:08.352Z,47.20
2017-10-31T14:02:36.083Z,48.00
2017-10-31T14:05:04.010Z,48.10
2017-10-31T14:07:37.176Z,47.70
2017-10-31T14:10:05.913Z,47.90
2017-10-31T14:12:34.604Z,48.20
2017-10-31T14:15:02.161Z,48.10
2017-10-31T14:17:30.268Z,48.10
2017-10-31T14:19:58.043Z,47.60
2017-10-31T14:22:25.534Z,47.80
2017-10-31T14:24:53.759Z,48.20
2017-10-31T14:27:22.479Z,48.30
2017-10-31T14:29:49.941Z,48.30
2017-10-31T14:32:17.491Z,47.50
2017-10-31T14:34:44.969Z,47.50
2017-10-31T14:37:12.546Z,48.00
2017-10-31T14:39:40.923Z,48.40
2017-10-31T14:42:09.691Z,48.10
2017-10-31T14:44:37.196Z,48.20
2017-10-31T14:47:04.893Z,47.80
2017-10-31T14:49:32.404Z,47.90
2017-10-31T14:51:59.893Z,47.90
2017-10-31T14:54:27.563Z,47.60
2017-10-31T14:56:55.825Z,47.60
2017-10-31T14:59:24.125Z,47.50
2017-10-31T15:01:51.728Z,47.50
2017-10-31T15:04:20.028Z,47.40
2017-10-31T15:06:48.275Z,47.30
2017-10-31T15:09:15.929Z,47.40
2017-10-31T15:11:44.196Z,47.90
2017-10-31T15:14:11.819Z,47.90
2017-10-31T15:16:39.434Z,47.30
2017-10-31T15:19:06.953Z,47.40
2017-10-31T15:21:34.489Z,47.00
2017-10-31T15:24:02.819Z,46.80
2017-10-31T15:26:30.330Z,46.90
2017-10-31T15:28:58.006Z,46.90
2017-10-31T15:31:26.424Z,47.30
2017-10-31T15:33:54.653Z,47.40
2017-10-31T15:36:24.159Z,47.50
2017-10-31T15:38:51.748Z,48.30
2017-10-31T15:41:19.385Z,48.70
2017-10-31T15:43:46.849Z,48.70
2017-10-31T15:46:15.199Z,49.30
2017-10-31T15:48:42.699Z,49.40
2017-10-31T15:51:10.418Z,49.50
2017-10-31T15:53:37.989Z,50.00
2017-10-31T15:56:05.467Z,49.90
2017-10-31T15:58:32.997Z,50.20
2017-10-31T16:01:01.264Z,50.90
2017-10-31T16:03:28.931Z,50.90
2017-10-31T16:05:57.151Z,52.00
2017-10-31T16:08:24.809Z,52.00
2017-10-31T16:10:52.377Z,51.60
2017-10-31T16:13:20.775Z,51.90
2017-10-31T16:15:48.267Z,51.90
2017-10-31T16:18:15.828Z,51.80
2017-10-31T16:20:45.059Z,52.10
2017-10-31T16:23:13.561Z,52.30
2017-10-31T16:25:41.058Z,52.30
2017-10-31T16:28:08.564Z,52.70
2017-10-31T16:30:36.168Z,53.00
2017-10-31T16:33:03.645Z,52.80
2017-10-31T16:35:31.115Z,52.80
2017-10-31T16:37:58.828Z,53.10
2017-10-31T16:40:26.420Z,53.60
2017-10-31T16:42:54.679Z,54.00
2017-10-31T16:45:23.065Z,53.90
2017-10-31T16:47:51.612Z,53.90
2017-10-31T16:50:19.897Z,53.90
2017-10-31T16:52:47.455Z,54.40
2017-10-31T16:55:15.032Z,54.40
2017-10-31T16:57:43.682Z,54.30
2017-10-31T17:00:12.475Z,54.70
2017-10-31T17:02:39.958Z,54.70
2017-10-31T17:05:07.491Z,54.70
2017-10-31T17:07:36.551Z,55.20
2017-10-31T17:10:04.190Z,55.40
2017-10-31T17:12:31.661Z,55.70
2017-10-31T17:14:59.229Z,55.80
2017-10-31T17:17:28.060Z,56.20
2017-10-31T17:19:57.065Z,56.60
2017-10-31T17:22:24.613Z,56.50
2017-10-31T17:24:52.154Z,56.70
2017-10-31T17:27:20.809Z,57.00
2017-10-31T17:29:49.340Z,57.10
2017-10-31T17:32:16.959Z,57.10
2017-10-31T17:34:44.458Z,57.00
2017-10-31T17:37:12.741Z,57.20
2017-10-31T17:39:40.983Z,57.40
2017-10-31T17:42:08.487Z,57.40
2017-10-31T17:44:36.766Z,57.60
2017-10-31T17:47:05.049Z,58.00
2017-10-31T17:49:32.533Z,58.00
2017-10-31T17:52:00.361Z,58.00
2017-10-31T17:54:27.868Z,58.10
2017-10-31T17:56:55.332Z,58.10
2017-10-31T17:59:23.701Z,58.50
2017-10-31T18:01:52.095Z,58.70
2017-10-31T18:04:19.569Z,58.70
2017-10-31T18:06:47.119Z,58.70
2017-10-31T18:09:14.635Z,58.90
2017-10-31T18:11:42.223Z,59.10
2017-10-31T18:14:09.791Z,59.10
2017-10-31T18:16:39.856Z,59.20
2017-10-31T18:19:11.407Z,59.30
2017-10-31T18:21:49.462Z,59.30
2017-10-31T18:24:39.077Z,59.30
2017-10-31T18:27:07.662Z,59.50
2017-10-31T18:29:35.285Z,60.50
2017-10-31T18:32:02.818Z,60.10
2017-10-31T18:34:31.072Z,59.70
2017-10-31T18:36:58.724Z,59.70
2017-10-31T18:39:26.251Z,59.80
2017-10-31T18:41:53.731Z,59.90
2017-10-31T18:44:21.312Z,59.80
2017-10-31T18:46:48.826Z,59.90
2017-10-31T18:49:18.010Z,60.10
2017-10-31T18:51:46.392Z,60.10
2017-10-31T18:54:13.958Z,60.20
2017-10-31T18:56:42.194Z,60.20
2017-10-31T18:59:09.827Z,60.30
2017-10-31T19:01:37.306Z,60.10
2017-10-31T19:04:04.954Z,60.00
2017-10-31T19:06:32.500Z,59.90
2017-10-31T19:09:00.834Z,60.20
2017-10-31T19:11:29.306Z,60.20
2017-10-31T19:13:56.815Z,60.20
2017-10-31T19:16:27.028Z,60.40
2017-10-31T19:18:54.511Z,60.40
2017-10-31T19:21:22.074Z,60.80
2017-10-31T19:23:49.666Z,60.70
2017-10-31T19:26:18.130Z,60.60
2017-10-31T19:28:46.412Z,60.60
2017-10-31T19:31:14.004Z,60.50
2017-10-31T19:33:41.490Z,60.60
2017-10-31T19:36:08.990Z,61.00
2017-10-31T19:38:36.742Z,61.10
2017-10-31T19:41:06.172Z,61.20
2017-10-31T19:43:33.701Z,61.10
2017-10-31T19:46:01.205Z,61.20
2017-10-31T19:48:29.444Z,61.60
2017-10-31T19:50:57.049Z,61.60
2017-10-31T19:53:25.292Z,62.10
2017-10-31T19:55:52.878Z,61.50
2017-10-31T19:58:20.362Z,61.40
2017-10-31T20:00:47.854Z,61.40
2017-10-31T20:03:15.343Z,61.60
2017-10-31T20:05:43.030Z,61.70
2017-10-31T20:08:11.901Z,61.20
2017-10-31T20:10:39.386Z,61.90
2017-10-31T20:13:07.686Z,61.10
2017-10-31T20:15:35.216Z,61.10
2017-10-31T20:18:03.773Z,61.70
2017-10-31T20:20:31.284Z,61.00
2017-10-31T20:22:58.784Z,61.40
2017-10-31T20:25:26.284Z,61.60
2017-10-31T20:27:53.779Z,61.50
2017-10-31T20:30:21.314Z,61.70
2017-10-31T20:32:48.864Z,61.70
2017-10-31T20:35:18.295Z,61.90
2017-10-31T20:37:45.872Z,61.80
2017-10-31T20:40:14.278Z,61.70
2017-10-31T20:42:42.597Z,62.20
2017-10-31T20:45:10.908Z,62.10
2017-10-31T20:47:38.425Z,62.00
2017-10-31T20:50:05.933Z,61.90
2017-10-31T20:52:34.237Z,62.20
2017-10-31T20:55:02.551Z,61.80
2017-10-31T20:57:30.129Z,62.00
2017-10-31T20:59:57.709Z,61.50
2017-10-31T21:02:25.665Z,61.60
2017-10-31T21:04:53.156Z,61.60
2017-10-31T21:07:21.395Z,61.20
2017-10-31T21:09:48.902Z,61.20
2017-10-31T21:12:16.399Z,61.60
2017-10-31T21:14:43.882Z,61.50
2017-10-31T21:17:11.403Z,61.70
2017-10-31T21:19:38.902Z,62.20
2017-10-31T21:22:06.422Z,62.40
2017-10-31T21:24:33.942Z,62.80
2017-10-31T21:27:01.426Z,62.60
2017-10-31T21:29:28.960Z,62.80
2017-10-31T21:31:56.459Z,63.00
2017-10-31T21:34:24.000Z,62.60
2017-10-31T21:36:52.258Z,62.30
2017-10-31T21:39:19.798Z,62.30
2017-10-31T21:41:48.833Z,62.30
2017-10-31T21:44:16.412Z,62.40
2017-10-31T21:46:43.917Z,62.70
2017-10-31T21:49:11.381Z,62.90
2017-10-31T21:51:38.940Z,62.50
2017-10-31T21:54:06.476Z,62.90
2017-10-31T21:56:34.002Z,63.00
2017-10-31T21:59:01.476Z,63.10
2017-10-31T22:01:30.934Z,63.10
2017-10-31T22:03:59.271Z,63.70
2017-10-31T22:06:26.934Z,63.70
2017-10-31T22:08:55.426Z,63.70
2017-10-31T22:11:22.911Z,63.70
2017-10-31T22:13:50.427Z,63.90
2017-10-31T22:16:18.073Z,64.10
2017-10-31T22:18:45.588Z,64.00
2017-10-31T22:21:13.134Z,64.00
2017-10-31T22:23:41.386Z,63.90
2017-10-31T22:26:09.538Z,64.00
2017-10-31T22:28:37.284Z,64.00
2017-10-31T22:31:04.763Z,64.20
2017-10-31T22:33:32.374Z,64.20
2017-10-31T22:35:59.844Z,64.30
2017-10-31T22:38:28.114Z,64.00
2017-10-31T22:40:55.589Z,64.00
2017-10-31T22:43:24.853Z,63.70
2017-10-31T22:45:53.098Z,64.00
2017-10-31T22:48:20.606Z,64.00
2017-10-31T22:50:48.280Z,63.80
2017-10-31T22:53:15.940Z,64.10
2017-10-31T22:55:44.182Z,64.20
2017-10-31T22:58:11.655Z,64.20
2017-10-31T23:00:39.154Z,64.20
2017-10-31T23:03:07.551Z,64.30
2017-10-31T23:05:35.069Z,64.30
2017-10-31T23:08:03.348Z,64.70
2017-10-31T23:10:30.838Z,64.20
2017-10-31T23:12:58.380Z,63.60
2017-10-31T23:15:25.890Z,63.40
2017-10-31T23:17:53.390Z,63.30
2017-10-31T23:20:21.629Z,63.30
2017-10-31T23:22:49.114Z,63.20
2017-10-31T23:25:16.628Z,63.20
2017-10-31T23:27:44.108Z,63.20
2017-10-31T23:30:11.596Z,63.60
2017-10-31T23:32:39.090Z,62.90
2017-10-31T23:35:12.441Z,62.60
2017-10-31T23:37:41.600Z,62.00
2017-10-31T23:40:09.092Z,62.20
2017-10-31T23:42:37.319Z,62.50
2017-10-31T23:45:04.815Z,62.30
2017-10-31T23:47:32.335Z,62.40
2017-10-31T23:50:03.155Z,62.70
2017-10-31T23:52:30.844Z,62.90
2017-10-31T23:54:58.322Z,62.60
2017-10-31T23:57:26.569Z,62.10
2017-10-31T23:59:54.473Z,62.20
